Time;durP1;ratioP1;P1;durP2;ratioP2;P2;SDS_P1;SDS_P2;PMS_P1;PMS_P2;Temp;Humidity;BMP_temperature;BMP_pressure;BME280_temperature;BME280_humidity;BME280_pressure;Samples;Min_cycle;Max_cycle;Signal;HPM_P1;HPM_P2
2022/07/01 00:00:57;;;;;;;4.50;1.70;;;15.40;99.90;;;;;;9184304;19;20066;-69
2022/07/01 00:04:04;;;;;;;5.00;1.33;;;15.40;99.90;;;;;;9180402;19;20011;-70
2022/07/01 00:07:07;;;;;;;6.57;1.60;;;15.60;99.90;;;;;;9182449;19;20015;-70
2022/07/01 00:10:12;;;;;;;7.53;1.55;;;15.60;99.90;;;;;;9185673;19;20019;-69
2022/07/01 00:13:16;;;;;;;3.42;1.42;;;15.70;99.90;;;;;;9178521;19;20017;-69
2022/07/01 00:16:20;;;;;;;7.43;2.13;;;15.80;99.90;;;;;;9182325;19;20018;-69
2022/07/01 00:19:29;;;;;;;4.15;1.83;;;15.80;99.90;;;;;;9183790;19;20022;-69
2022/07/01 00:22:33;;;;;;;4.80;1.83;;;15.80;99.90;;;;;;9180141;19;20022;-69
2022/07/01 00:25:37;;;;;;;7.82;2.22;;;15.80;99.90;;;;;;9180894;19;20015;-70
2022/07/01 00:28:41;;;;;;;4.25;1.58;;;15.70;99.90;;;;;;9183069;19;20070;-69
2022/07/01 00:31:45;;;;;;;5.82;1.30;;;15.70;99.90;;;;;;9181083;19;20515;-70
2022/07/01 00:34:51;;;;;;;7.40;1.63;;;15.70;99.90;;;;;;9182598;19;20022;-70
2022/07/01 00:37:55;;;;;;;5.38;1.30;;;15.80;99.90;;;;;;9178476;19;20014;-69
2022/07/01 00:40:59;;;;;;;4.60;1.50;;;15.80;99.90;;;;;;9178656;19;20038;-69
2022/07/01 00:44:03;;;;;;;6.47;1.70;;;15.70;99.90;;;;;;9179682;19;20011;-69
2022/07/01 00:47:13;;;;;;;4.97;1.42;;;15.70;99.90;;;;;;9182077;19;20011;-69
2022/07/01 00:50:19;;;;;;;4.28;1.33;;;15.80;99.90;;;;;;9181128;19;20010;-69
2022/07/01 00:53:24;;;;;;;5.35;1.90;;;15.80;99.90;;;;;;9180721;19;20014;-69
2022/07/01 00:56:28;;;;;;;5.38;1.42;;;15.50;99.90;;;;;;9181756;19;20015;-70
2022/07/01 00:59:34;;;;;;;5.15;1.20;;;15.50;99.90;;;;;;9186950;19;20038;-69
2022/07/01 01:02:39;;;;;;;5.53;1.90;;;15.70;99.90;;;;;;9183943;19;20078;-70
2022/07/01 01:05:45;;;;;;;2.40;1.27;;;15.60;99.90;;;;;;9181225;19;20015;-69
2022/07/01 01:08:50;;;;;;;2.65;1.10;;;15.70;99.90;;;;;;9181019;19;20025;-70
2022/07/01 01:11:54;;;;;;;3.72;1.00;;;15.30;99.90;;;;;;9179127;19;20025;-70
2022/07/01 01:14:59;;;;;;;4.15;1.30;;;15.20;99.90;;;;;;9179966;19;20033;-69
2022/07/01 01:18:05;;;;;;;5.00;1.52;;;15.20;99.90;;;;;;9176763;19;20017;-70
2022/07/01 01:21:12;;;;;;;3.22;1.38;;;15.40;99.90;;;;;;9178407;19;20019;-70
2022/07/01 01:24:16;;;;;;;4.13;1.50;;;15.30;99.90;;;;;;9176624;19;20029;-69
2022/07/01 01:27:20;;;;;;;3.53;1.13;;;15.30;99.90;;;;;;9181333;19;20011;-69
2022/07/01 01:30:24;;;;;;;3.20;1.20;;;15.40;99.90;;;;;;9179496;19;20021;-69
2022/07/01 01:33:28;;;;;;;3.83;1.40;;;15.50;99.90;;;;;;9178274;19;20011;-69
2022/07/01 01:36:34;;;;;;;2.95;1.20;;;15.40;99.90;;;;;;9183079;19;20182;-70
2022/07/01 01:39:39;;;;;;;3.13;1.38;;;15.40;99.90;;;;;;9189158;19;20023;-70
2022/07/01 01:42:43;;;;;;;2.72;1.20;;;15.40;99.90;;;;;;9182162;19;20074;-70
2022/07/01 01:45:47;;;;;;;4.55;1.30;;;15.40;99.90;;;;;;9186444;19;20048;-69
2022/07/01 01:48:52;;;;;;;2.40;1.00;;;15.10;99.90;;;;;;9190772;19;20044;-69
2022/07/01 01:52:00;;;;;;;2.00;1.20;;;15.40;99.90;;;;;;9185975;19;20099;-69
2022/07/01 01:55:04;;;;;;;3.75;1.10;;;15.70;99.90;;;;;;9189668;19;20110;-69
2022/07/01 01:58:08;;;;;;;1.50;1.10;;;15.40;99.90;;;;;;9185624;19;20475;-69
2022/07/01 02:01:12;;;;;;;2.85;1.30;;;15.60;99.90;;;;;;9189001;19;20011;-69
2022/07/01 02:04:17;;;;;;;3.13;1.38;;;15.50;99.90;;;;;;9188692;19;20018;-70
2022/07/01 02:07:23;;;;;;;1.98;1.00;;;15.50;99.90;;;;;;9190482;19;20017;-69
2022/07/01 02:10:27;;;;;;;2.33;1.33;;;15.60;99.90;;;;;;9184891;19;20020;-69
2022/07/01 02:13:32;;;;;;;1.83;1.30;;;15.60;99.90;;;;;;9180676;19;20426;-70
2022/07/01 02:16:36;;;;;;;4.05;1.65;;;15.60;99.90;;;;;;9188128;19;20415;-69
2022/07/01 02:19:40;;;;;;;2.92;1.20;;;15.60;99.90;;;;;;9189429;19;20082;-69
2022/07/01 02:22:46;;;;;;;4.00;1.27;;;15.30;99.90;;;;;;9186232;19;20086;-69
2022/07/01 02:25:50;;;;;;;3.15;1.17;;;15.10;99.90;;;;;;9185521;19;20023;-69
2022/07/01 02:28:54;;;;;;;2.67;1.17;;;15.50;99.90;;;;;;9188796;19;20122;-69
2022/07/01 02:31:58;;;;;;;2.05;1.48;;;15.50;99.90;;;;;;9183683;19;20089;-69
2022/07/01 02:35:02;;;;;;;4.10;1.50;;;15.50;99.90;;;;;;9187283;19;20023;-69
2022/07/01 02:38:10;;;;;;;5.65;1.48;;;15.60;99.90;;;;;;9186547;19;20081;-69
2022/07/01 02:41:14;;;;;;;3.70;1.50;;;15.40;99.90;;;;;;9180791;19;20030;-69
2022/07/01 02:44:17;;;;;;;3.47;1.50;;;15.40;99.90;;;;;;9185006;19;20008;-69
2022/07/01 02:47:22;;;;;;;3.65;1.73;;;15.30;99.90;;;;;;9184697;19;20482;-69
2022/07/01 02:50:25;;;;;;;3.58;1.50;;;15.30;99.90;;;;;;9185144;19;20411;-69
2022/07/01 02:53:32;;;;;;;5.07;1.65;;;15.30;99.90;;;;;;9184353;19;20014;-69
2022/07/01 02:56:36;;;;;;;3.00;1.50;;;15.10;99.90;;;;;;9185705;19;20494;-69
2022/07/01 02:59:40;;;;;;;3.65;1.70;;;15.10;99.90;;;;;;9185984;19;20014;-69
2022/07/01 03:02:45;;;;;;;4.60;1.75;;;15.20;99.90;;;;;;9185539;19;20025;-69
2022/07/01 03:05:49;;;;;;;4.40;1.60;;;15.00;99.90;;;;;;9185549;19;20018;-69
2022/07/01 03:08:57;;;;;;;4.03;1.75;;;15.10;99.90;;;;;;9183199;19;20463;-69
2022/07/01 03:12:24;;;;;;;3.90;1.65;;;15.00;99.90;;;;;;9182465;19;20018;-69
2022/07/01 03:15:25;;;;;;;3.45;2.00;;;14.90;99.90;;;;;;9186166;19;20400;-69
2022/07/01 03:18:29;;;;;;;4.10;2.00;;;15.00;99.90;;;;;;9181376;19;20058;-69
2022/07/01 03:21:33;;;;;;;6.07;2.40;;;15.10;99.90;;;;;;9185216;19;20475;-69
2022/07/01 03:24:39;;;;;;;3.63;1.60;;;15.10;99.90;;;;;;9183302;19;20022;-69
2022/07/01 03:27:45;;;;;;;6.47;2.70;;;14.90;99.90;;;;;;9185246;19;20018;-68
2022/07/01 03:30:48;;;;;;;5.60;1.80;;;14.90;99.90;;;;;;9183325;19;20090;-69
2022/07/01 03:33:52;;;;;;;5.13;1.92;;;14.90;99.90;;;;;;9182474;19;20015;-69
2022/07/01 03:36:56;;;;;;;3.03;1.77;;;14.70;99.90;;;;;;9180998;19;20441;-69
2022/07/01 03:40:03;;;;;;;3.22;1.90;;;14.90;99.90;;;;;;9185255;19;20022;-69
2022/07/01 03:43:07;;;;;;;3.80;1.80;;;14.80;99.90;;;;;;9179416;19;20007;-69
2022/07/01 03:46:12;;;;;;;4.75;1.63;;;14.80;99.90;;;;;;9180588;19;20119;-69
2022/07/01 03:49:16;;;;;;;4.90;2.33;;;14.60;99.90;;;;;;9181082;19;20014;-69
2022/07/01 03:52:20;;;;;;;4.40;1.77;;;14.80;99.90;;;;;;9181237;19;20442;-71
2022/07/01 03:55:24;;;;;;;3.85;1.60;;;14.80;99.90;;;;;;9182697;19;20051;-69
2022/07/01 03:58:28;;;;;;;3.28;1.80;;;14.50;99.90;;;;;;9184048;19;20026;-69
2022/07/01 04:01:32;;;;;;;5.13;1.75;;;14.70;99.90;;;;;;9179987;19;20487;-69
2022/07/01 04:04:37;;;;;;;4.80;1.90;;;14.60;99.90;;;;;;9181064;19;20692;-70
2022/07/01 04:07:41;;;;;;;2.40;1.42;;;14.70;99.90;;;;;;9181871;19;20018;-69
2022/07/01 04:10:49;;;;;;;2.90;1.70;;;14.70;99.90;;;;;;9179709;19;20014;-69
2022/07/01 04:13:53;;;;;;;4.47;1.60;;;14.70;99.90;;;;;;9179263;19;20019;-69
2022/07/01 04:16:57;;;;;;;7.57;2.10;;;14.80;99.90;;;;;;9183339;19;20011;-69
2022/07/01 04:20:01;;;;;;;3.88;2.00;;;14.70;99.90;;;;;;9183633;19;20029;-69
2022/07/01 04:23:02;;;;;;;2.92;1.90;;;14.80;99.90;;;;;;9182370;19;20023;-69
2022/07/01 04:26:09;;;;;;;5.53;2.30;;;14.60;99.90;;;;;;9181424;19;20085;-69
2022/07/01 04:29:13;;;;;;;3.70;2.17;;;14.80;99.90;;;;;;9183104;19;20423;-69
2022/07/01 04:32:17;;;;;;;3.67;2.50;;;14.70;99.90;;;;;;9180134;19;20062;-69
2022/07/01 04:35:21;;;;;;;3.05;2.25;;;15.10;99.90;;;;;;9179964;19;20074;-69
2022/07/01 04:38:24;;;;;;;5.53;2.47;;;15.00;99.90;;;;;;9179050;19;20034;-69
2022/07/01 04:44:47;;;;;;;5.43;2.63;;;14.50;99.90;;;;;;9178767;19;20047;-69
2022/07/01 04:47:51;;;;;;;4.97;2.63;;;14.70;99.90;;;;;;9179403;19;20044;-69
2022/07/01 04:50:55;;;;;;;5.05;2.67;;;14.70;99.90;;;;;;9179327;19;20484;-69
2022/07/01 04:53:59;;;;;;;5.70;3.20;;;14.60;99.90;;;;;;9176563;19;20010;-69
2022/07/01 04:57:06;;;;;;;7.05;3.50;;;14.20;99.90;;;;;;9181862;19;20014;-69
2022/07/01 05:00:11;;;;;;;;;;;14.60;99.90;;;;;;9178034;19;20074;-69
2022/07/01 05:03:16;;;;;;;6.47;3.95;;;14.50;99.90;;;;;;9181145;19;19934;-68
2022/07/01 05:06:20;;;;;;;5.70;4.03;;;14.60;99.90;;;;;;9179829;19;20018;-69
2022/07/01 05:09:25;;;;;;;8.05;5.05;;;14.80;99.90;;;;;;9177231;19;20011;-69
2022/07/01 05:12:32;;;;;;;6.88;4.93;;;14.60;99.90;;;;;;9181944;19;20022;-69
2022/07/01 05:15:36;;;;;;;8.02;5.32;;;14.50;99.90;;;;;;9188095;19;20022;-69
2022/07/01 05:21:59;;;;;;;8.60;6.03;;;15.00;99.90;;;;;;9188631;19;20105;-68
2022/07/01 05:25:03;;;;;;;13.02;7.47;;;14.80;99.90;;;;;;9186544;19;20022;-69
2022/07/01 05:28:10;;;;;;;11.40;7.20;;;14.80;99.90;;;;;;9190561;19;20033;-69
2022/07/01 05:31:14;;;;;;;13.50;8.40;;;14.80;99.90;;;;;;9184778;19;20019;-69
2022/07/01 05:34:22;;;;;;;12.10;8.73;;;14.60;99.90;;;;;;9186220;19;20010;-69
2022/07/01 05:37:26;;;;;;;15.15;9.73;;;14.60;99.90;;;;;;9190035;19;20015;-69
2022/07/01 05:40:30;;;;;;;16.00;10.30;;;14.80;99.90;;;;;;9189321;19;20014;-68
2022/07/01 05:43:37;;;;;;;22.17;11.10;;;14.80;99.90;;;;;;9182999;19;20458;-69
2022/07/01 05:46:41;;;;;;;16.85;11.32;;;14.90;99.90;;;;;;9188899;19;20047;-69
2022/07/01 05:49:45;;;;;;;20.85;11.75;;;14.60;99.90;;;;;;9187249;19;20025;-69
2022/07/01 05:52:49;;;;;;;21.80;13.77;;;14.70;99.90;;;;;;9185988;19;20014;-69
2022/07/01 05:55:53;;;;;;;21.17;13.25;;;14.80;99.90;;;;;;9187112;19;20085;-69
2022/07/01 05:58:59;;;;;;;23.20;13.48;;;14.60;99.90;;;;;;9185228;19;20017;-69
2022/07/01 06:02:03;;;;;;;21.60;13.27;;;14.80;99.90;;;;;;9186344;19;20053;-69
2022/07/01 06:05:08;;;;;;;23.65;13.73;;;14.60;99.90;;;;;;9187928;19;20463;-69
2022/07/01 06:08:12;;;;;;;25.27;14.02;;;14.50;99.90;;;;;;9185365;19;20023;-67
2022/07/01 06:11:17;;;;;;;25.45;14.50;;;14.30;99.90;;;;;;9182996;19;20604;-67
2022/07/01 06:14:24;;;;;;;24.40;15.15;;;14.70;99.90;;;;;;9185304;19;20118;-67
2022/07/01 06:17:27;;;;;;;26.70;15.98;;;14.70;99.90;;;;;;9188990;19;20582;-67
2022/07/01 06:20:32;;;;;;;27.00;15.38;;;14.60;99.90;;;;;;9185701;19;20014;-67
2022/07/01 06:23:35;;;;;;;25.50;15.00;;;14.30;99.90;;;;;;9183108;19;20612;-68
2022/07/01 06:26:39;;;;;;;25.27;15.57;;;14.80;99.90;;;;;;9184760;19;20015;-67
2022/07/01 06:29:46;;;;;;;25.65;15.38;;;14.80;99.90;;;;;;9185616;19;20014;-67
2022/07/01 06:32:50;;;;;;;29.38;15.32;;;14.70;99.90;;;;;;9183304;19;20021;-67
2022/07/01 06:35:54;;;;;;;23.42;15.32;;;14.70;99.90;;;;;;9183257;19;20348;-67
2022/07/01 06:38:57;;;;;;;25.92;14.70;;;14.70;99.90;;;;;;9182597;19;20376;-67
2022/07/01 06:42:01;;;;;;;25.85;15.50;;;14.70;99.90;;;;;;9180601;19;20129;-67
2022/07/01 06:45:09;;;;;;;25.38;15.30;;;14.60;99.90;;;;;;9181092;19;20480;-67
2022/07/01 06:48:14;;;;;;;26.75;15.73;;;14.60;99.90;;;;;;9185497;19;20566;-67
2022/07/01 06:51:18;;;;;;;25.25;14.73;;;14.70;99.90;;;;;;9184604;19;20018;-67
2022/07/01 06:54:22;;;;;;;28.02;15.80;;;14.80;99.90;;;;;;9180474;19;20018;-66
2022/07/01 06:57:26;;;;;;;27.38;16.38;;;14.80;99.90;;;;;;9185907;19;20022;-67
2022/07/01 07:00:32;;;;;;;25.52;15.63;;;15.00;99.90;;;;;;9182797;19;20014;-67
2022/07/01 07:03:36;;;;;;;27.98;16.65;;;14.80;99.90;;;;;;9185972;19;20341;-67
2022/07/01 07:06:40;;;;;;;28.48;16.42;;;14.50;99.90;;;;;;9185118;19;20337;-67
2022/07/01 07:09:44;;;;;;;27.88;16.98;;;14.80;99.90;;;;;;9186522;19;20348;-67
2022/07/01 07:12:49;;;;;;;26.75;16.85;;;14.90;99.90;;;;;;9182043;19;20010;-67
2022/07/01 07:15:55;;;;;;;25.58;15.35;;;14.80;99.90;;;;;;9184231;19;20471;-67
2022/07/01 07:18:59;;;;;;;27.05;16.45;;;15.00;99.90;;;;;;9181927;19;20018;-67
2022/07/01 07:22:03;;;;;;;25.63;15.98;;;15.10;99.90;;;;;;9184423;19;20018;-67
2022/07/01 07:25:08;;;;;;;27.35;16.23;;;15.20;99.90;;;;;;9180980;19;20024;-67
2022/07/01 07:36:13;;;;;;;23.27;14.40;;;15.20;99.90;;;;;;9170013;19;20551;-67
2022/07/01 07:39:17;;;;;;;23.23;14.50;;;15.20;99.90;;;;;;9183287;19;20010;-67
2022/07/01 07:42:21;;;;;;;23.27;15.23;;;15.30;99.90;;;;;;9180145;19;20404;-67
2022/07/01 07:45:25;;;;;;;22.10;14.13;;;15.10;99.90;;;;;;9179668;19;20070;-67
2022/07/01 07:48:29;;;;;;;22.05;15.10;;;15.30;99.90;;;;;;9183897;19;20028;-67
2022/07/01 07:51:36;;;;;;;24.27;14.73;;;15.30;99.90;;;;;;9183089;19;20018;-67
2022/07/01 07:54:40;;;;;;;19.40;13.68;;;15.40;99.90;;;;;;9183134;19;20017;-67
2022/07/01 07:57:44;;;;;;;19.52;13.90;;;15.40;99.90;;;;;;9181043;19;20371;-67
2022/07/01 08:00:48;;;;;;;20.83;14.10;;;15.60;99.90;;;;;;9179483;19;20044;-67
2022/07/01 08:03:52;;;;;;;21.30;13.75;;;15.50;99.90;;;;;;9184670;19;20047;-67
2022/07/01 08:06:58;;;;;;;22.65;14.80;;;15.50;99.90;;;;;;9180224;19;20360;-67
2022/07/01 08:10:02;;;;;;;23.27;13.98;;;15.50;99.90;;;;;;9182158;19;20017;-67
2022/07/01 08:13:07;;;;;;;19.90;14.75;;;15.60;99.90;;;;;;9182310;19;20018;-67
2022/07/01 08:16:11;;;;;;;19.83;13.63;;;15.90;99.90;;;;;;9183473;19;20023;-67
2022/07/01 08:19:15;;;;;;;22.38;13.82;;;15.70;99.90;;;;;;9181612;19;20022;-67
2022/07/01 08:22:21;;;;;;;17.80;13.05;;;15.80;99.90;;;;;;9178858;19;20391;-67
2022/07/01 08:25:25;;;;;;;21.52;13.90;;;15.60;99.90;;;;;;9184157;19;20391;-67
2022/07/01 08:28:29;;;;;;;22.27;14.43;;;15.80;99.90;;;;;;9181182;19;20059;-67
2022/07/01 08:31:33;;;;;;;19.30;13.10;;;15.80;99.90;;;;;;9183659;19;20357;-67
2022/07/01 08:34:38;;;;;;;19.33;13.35;;;15.70;99.90;;;;;;9180168;19;20423;-67
2022/07/01 08:37:44;;;;;;;23.63;14.77;;;15.70;99.90;;;;;;9179691;19;20032;-67
2022/07/01 08:40:49;;;;;;;20.00;13.80;;;15.80;99.90;;;;;;9182873;19;20487;-67
2022/07/01 08:43:53;;;;;;;21.10;12.57;;;15.90;99.90;;;;;;9174918;19;20049;-67
2022/07/01 08:46:57;;;;;;;20.55;13.18;;;15.90;99.90;;;;;;9176307;19;20021;-67
2022/07/01 08:50:03;;;;;;;20.00;12.80;;;15.80;99.90;;;;;;9181924;19;20010;-67
2022/07/01 08:53:12;;;;;;;20.63;13.65;;;15.80;99.90;;;;;;9177787;19;20006;-67
2022/07/01 08:59:33;;;;;;;22.55;13.27;;;16.30;99.90;;;;;;9181594;19;20055;-67
2022/07/01 09:02:53;;;;;;;16.15;11.50;;;16.00;99.90;;;;;;9177823;19;20413;-67
2022/07/01 09:05:57;;;;;;;18.98;12.18;;;15.70;99.90;;;;;;9181217;19;20014;-67
2022/07/01 09:09:14;;;;;;;17.95;12.00;;;15.80;99.90;;;;;;9179724;19;20044;-67
2022/07/01 09:12:19;;;;;;;18.10;12.13;;;15.90;99.90;;;;;;9177508;19;20010;-67
2022/07/01 09:15:29;;;;;;;17.42;12.35;;;15.80;99.90;;;;;;9177031;19;20014;-67
2022/07/01 09:18:33;;;;;;;19.08;12.73;;;15.90;99.90;;;;;;9178648;19;20025;-67
2022/07/01 09:21:36;;;;;;;18.20;12.35;;;16.00;99.90;;;;;;9179798;19;20042;-67
2022/07/01 09:24:44;;;;;;;19.27;12.73;;;16.10;99.90;;;;;;9178957;19;20018;-67
2022/07/01 09:27:48;;;;;;;17.33;11.57;;;16.20;99.90;;;;;;9175701;19;20022;-67
2022/07/01 09:30:54;;;;;;;19.38;11.07;;;16.10;99.90;;;;;;9177194;19;20044;-67
2022/07/01 09:34:08;;;;;;;16.88;10.98;;;16.40;99.90;;;;;;9177619;19;20015;-67
2022/07/01 09:37:14;;;;;;;17.45;10.77;;;16.40;99.90;;;;;;9180323;19;20018;-68
2022/07/01 09:40:21;;;;;;;15.07;10.50;;;16.40;99.90;;;;;;9179320;19;20026;-67
2022/07/01 09:43:27;;;;;;;12.82;9.05;;;16.30;99.90;;;;;;9176191;19;20481;-67
2022/07/01 09:46:31;;;;;;;17.70;10.70;;;16.60;99.90;;;;;;9178030;19;20014;-67
2022/07/01 09:49:35;;;;;;;15.02;10.27;;;16.50;99.90;;;;;;9175032;19;20438;-67
2022/07/01 09:52:40;;;;;;;12.73;8.90;;;16.50;99.90;;;;;;9177915;19;20015;-67
2022/07/01 09:55:46;;;;;;;11.95;8.77;;;16.70;99.90;;;;;;9175299;19;20528;-67
2022/07/01 09:58:50;;;;;;;13.85;9.15;;;16.70;99.90;;;;;;9182758;19;20030;-67
2022/07/01 10:01:54;;;;;;;11.85;9.15;;;16.80;99.90;;;;;;9187675;19;20078;-67
2022/07/01 10:05:03;;;;;;;13.75;8.15;;;16.90;99.90;;;;;;9189389;19;20014;-67
2022/07/01 10:08:22;;;;;;;14.07;9.52;;;16.80;99.90;;;;;;9189573;19;20070;-67
2022/07/01 10:12:01;;;;;;;10.95;6.78;;;16.80;99.90;;;;;;9187183;19;20019;-67
2022/07/01 10:15:07;;;;;;;12.00;7.28;;;16.80;99.90;;;;;;9181669;19;20040;-67
2022/07/01 10:18:23;;;;;;;10.82;7.22;;;17.00;99.90;;;;;;9187897;19;20026;-67
2022/07/01 10:21:31;;;;;;;9.00;5.97;;;17.10;99.90;;;;;;9185509;19;20074;-67
2022/07/01 10:24:35;;;;;;;8.68;5.65;;;17.10;99.90;;;;;;9186453;19;20021;-67
2022/07/01 10:27:41;;;;;;;11.32;5.95;;;17.10;99.90;;;;;;9184017;19;20471;-67
2022/07/01 10:30:56;;;;;;;12.65;7.07;;;17.10;99.90;;;;;;9185271;19;20029;-68
2022/07/01 10:34:02;;;;;;;12.05;6.68;;;17.20;99.90;;;;;;9184598;19;20021;-69
2022/07/01 10:37:09;;;;;;;9.65;6.18;;;17.30;99.90;;;;;;9186738;19;20090;-68
2022/07/01 10:40:13;;;;;;;11.38;7.82;;;17.20;99.90;;;;;;9185360;19;20022;-68
2022/07/01 10:43:35;;;;;;;9.85;7.55;;;17.30;99.90;;;;;;9181137;19;20018;-68
2022/07/01 10:46:44;;;;;;;10.70;6.68;;;17.50;99.90;;;;;;9185796;19;20090;-68
2022/07/01 10:50:00;;;;;;;11.57;6.32;;;17.60;99.90;;;;;;9183878;19;20663;-68
2022/07/01 10:53:05;;;;;;;13.32;6.60;;;17.70;99.90;;;;;;9185561;19;20026;-68
2022/07/01 10:56:08;;;;;;;8.50;5.70;;;17.80;99.90;;;;;;9183538;19;20033;-69
2022/07/01 10:59:25;;;;;;;9.52;5.97;;;17.80;99.90;;;;;;9181040;19;20018;-68
2022/07/01 11:02:31;;;;;;;11.15;6.60;;;17.70;99.90;;;;;;9183461;19;20018;-68
2022/07/01 11:05:34;;;;;;;9.35;4.70;;;17.70;99.90;;;;;;9181873;19;20028;-68
2022/07/01 11:08:38;;;;;;;9.90;5.45;;;17.60;99.90;;;;;;9183535;19;20019;-68
2022/07/01 11:11:43;;;;;;;5.82;4.38;;;17.70;99.90;;;;;;9177725;19;20014;-68
2022/07/01 11:14:50;;;;;;;10.25;5.15;;;17.70;99.90;;;;;;9180705;19;20011;-68
2022/07/01 11:17:55;;;;;;;8.85;4.72;;;17.70;99.90;;;;;;9181859;19;20007;-68
2022/07/01 11:21:17;;;;;;;8.82;4.78;;;17.80;99.90;;;;;;9184857;19;20043;-68
2022/07/01 11:24:21;;;;;;;7.93;4.43;;;17.90;99.90;;;;;;9181105;19;20015;-68
2022/07/01 11:27:25;;;;;;;11.18;6.15;;;18.20;99.90;;;;;;9177314;19;20082;-68
2022/07/01 11:30:33;;;;;;;14.88;6.85;;;18.30;99.90;;;;;;9184373;19;20081;-67
2022/07/01 11:33:39;;;;;;;8.45;5.10;;;17.80;99.90;;;;;;9182699;19;20047;-68
2022/07/01 11:40:10;;;;;;;6.85;4.70;;;18.30;99.90;;;;;;9182686;19;20371;-69
2022/07/01 11:43:21;;;;;;;9.52;4.70;;;18.20;99.90;;;;;;9177132;19;20539;-67
2022/07/01 11:46:28;;;;;;;8.52;4.78;;;18.30;99.90;;;;;;9179566;19;20022;-67
2022/07/01 11:49:32;;;;;;;7.82;4.55;;;18.50;99.90;;;;;;9181456;19;20010;-66
2022/07/01 11:52:36;;;;;;;7.80;4.75;;;18.40;99.90;;;;;;9183550;19;20018;-70
2022/07/01 11:55:40;;;;;;;7.05;4.45;;;18.70;99.90;;;;;;9180509;19;20022;-69
2022/07/01 11:58:51;;;;;;;7.40;4.20;;;18.60;99.90;;;;;;9176897;19;20110;-69
2022/07/01 12:01:58;;;;;;;8.68;4.57;;;18.70;99.90;;;;;;9181250;19;20022;-69
2022/07/01 12:05:03;;;;;;;8.52;4.82;;;18.80;99.90;;;;;;9176530;19;20029;-70
2022/07/01 12:08:08;;;;;;;6.13;4.75;;;18.90;99.90;;;;;;9179873;19;20025;-69
2022/07/01 12:11:11;;;;;;;7.68;5.00;;;19.00;99.90;;;;;;9178561;19;20018;-67
2022/07/01 12:14:22;;;;;;;9.30;4.95;;;19.00;99.90;;;;;;9175518;19;20063;-69
2022/07/01 12:17:30;;;;;;;9.77;5.18;;;19.00;99.90;;;;;;9178513;19;20021;-69
2022/07/01 12:20:34;;;;;;;7.85;4.50;;;19.10;99.90;;;;;;9174551;19;20010;-69
2022/07/01 12:23:39;;;;;;;7.05;4.50;;;19.10;99.90;;;;;;9178175;19;20047;-69
2022/07/01 12:26:51;;;;;;;8.85;3.78;;;19.30;99.90;;;;;;9179211;19;20019;-69
2022/07/01 12:29:58;;;;;;;6.18;3.75;;;19.40;99.90;;;;;;9180071;19;20052;-68
2022/07/01 12:33:12;;;;;;;;;;;19.20;99.90;;;;;;9182803;19;20340;-69
2022/07/01 12:36:17;;;;;;;4.40;1.70;;;19.00;99.90;;;;;;9170543;19;19921;-69
2022/07/01 12:39:21;;;;;;;2.75;1.60;;;18.70;99.90;;;;;;9178093;19;20363;-69
2022/07/01 12:42:31;;;;;;;6.97;2.00;;;18.60;99.90;;;;;;9178541;19;20078;-69
2022/07/01 12:45:36;;;;;;;3.60;1.70;;;18.10;99.90;;;;;;9175788;19;20020;-70
2022/07/01 12:48:53;;;;;;;4.80;2.00;;;18.10;99.90;;;;;;9181548;19;20010;-69
2022/07/01 12:51:57;;;;;;;6.37;3.03;;;18.30;99.90;;;;;;9177880;19;20010;-69
2022/07/01 12:55:01;;;;;;;6.68;1.90;;;18.20;99.90;;;;;;9178388;19;20018;-69
2022/07/01 12:58:07;;;;;;;6.28;2.53;;;18.10;99.90;;;;;;9179130;19;20018;-73
2022/07/01 13:01:10;;;;;;;6.32;2.20;;;18.10;99.90;;;;;;9176925;19;20015;-70
2022/07/01 13:04:25;;;;;;;8.43;2.03;;;18.00;99.90;;;;;;9179780;19;20023;-69
2022/07/01 13:07:29;;;;;;;6.55;2.10;;;17.90;99.90;;;;;;9179739;19;20023;-70
2022/07/01 13:10:33;;;;;;;4.85;2.40;;;18.00;99.90;;;;;;9178853;19;20014;-70
2022/07/01 13:13:37;;;;;;;8.18;2.42;;;17.90;99.90;;;;;;9178707;19;20022;-71
2022/07/01 13:16:41;;;;;;;7.22;2.53;;;18.10;99.90;;;;;;9171243;19;20018;-70
2022/07/01 13:19:48;;;;;;;4.80;2.35;;;18.50;99.90;;;;;;9177332;19;20022;-70
2022/07/01 13:22:53;;;;;;;4.28;2.55;;;19.10;99.90;;;;;;9176217;19;20456;-70
2022/07/01 13:25:57;;;;;;;4.78;1.95;;;18.90;99.90;;;;;;9175606;19;20018;-70
2022/07/01 13:29:01;;;;;;;9.43;1.88;;;19.10;99.90;;;;;;9176697;19;20037;-70
2022/07/01 13:32:06;;;;;;;4.93;1.73;;;19.20;99.90;;;;;;9176892;19;20352;-71
2022/07/01 13:35:15;;;;;;;2.63;1.40;;;19.60;99.90;;;;;;9185104;19;20074;-70
2022/07/01 13:38:19;;;;;;;4.63;2.28;;;20.00;99.90;;;;;;9185454;19;20015;-70
2022/07/01 13:41:23;;;;;;;2.92;1.15;;;19.90;99.60;;;;;;9185614;19;20048;-70
2022/07/01 13:44:28;;;;;;;4.63;1.60;;;20.10;98.70;;;;;;9187205;19;20011;-71
2022/07/01 13:47:32;;;;;;;5.70;1.80;;;19.80;97.80;;;;;;9185204;19;20375;-70
2022/07/01 13:50:38;;;;;;;4.35;1.55;;;19.70;98.10;;;;;;9185476;19;20011;-70
2022/07/01 13:53:42;;;;;;;2.25;1.20;;;19.50;97.60;;;;;;9188944;19;20010;-70
2022/07/01 13:56:47;;;;;;;3.70;1.10;;;19.60;97.90;;;;;;9183793;19;20022;-71
2022/07/01 13:59:52;;;;;;;3.72;1.48;;;19.60;97.90;;;;;;9184783;19;20024;-71
2022/07/01 14:02:56;;;;;;;3.20;1.30;;;19.70;98.00;;;;;;9185459;19;20011;-71
2022/07/01 14:06:02;;;;;;;5.00;1.60;;;19.50;97.90;;;;;;9184753;19;20070;-71
2022/07/01 14:09:06;;;;;;;2.00;1.00;;;19.50;98.10;;;;;;9188625;19;20011;-71
2022/07/01 14:12:11;;;;;;;2.90;1.40;;;19.60;97.40;;;;;;9184023;19;20421;-70
2022/07/01 14:15:15;;;;;;;3.13;1.50;;;20.00;97.30;;;;;;9183052;19;20015;-70
2022/07/01 14:18:19;;;;;;;4.22;1.80;;;20.10;96.90;;;;;;9187193;19;20019;-71
2022/07/01 14:21:26;;;;;;;4.38;1.55;;;19.70;96.80;;;;;;9183545;19;20010;-70
2022/07/01 14:24:30;;;;;;;;;;;19.90;96.40;;;;;;9181979;19;20015;-71
2022/07/01 14:27:35;;;;;;;5.70;0.98;;;20.70;95.60;;;;;;9186906;19;19945;-70
2022/07/01 14:30:39;;;;;;;5.25;1.45;;;20.80;95.20;;;;;;9183360;19;20365;-70
2022/07/01 14:33:42;;;;;;;1.83;0.80;;;21.40;94.50;;;;;;9182555;19;20011;-71
2022/07/01 14:36:49;;;;;;;4.00;1.23;;;21.20;92.60;;;;;;9180835;19;20018;-70
2022/07/01 14:39:56;;;;;;;3.17;1.20;;;21.40;91.70;;;;;;9183236;19;20011;-70
2022/07/01 14:42:59;;;;;;;4.22;1.10;;;21.00;92.00;;;;;;9186944;19;20010;-71
2022/07/01 14:46:08;;;;;;;1.90;1.08;;;20.70;92.40;;;;;;9178363;19;20046;-70
2022/07/01 14:49:14;;;;;;;3.22;1.70;;;20.90;93.10;;;;;;9182750;19;20010;-68
2022/07/01 14:52:20;;;;;;;3.47;1.38;;;21.00;93.70;;;;;;9182518;19;20455;-71
2022/07/01 14:55:24;;;;;;;3.47;1.30;;;20.90;94.10;;;;;;9181428;19;20073;-68
2022/07/01 14:58:28;;;;;;;3.13;1.05;;;20.70;93.90;;;;;;9182105;19;20078;-68
2022/07/01 15:01:32;;;;;;;5.22;1.83;;;20.30;93.70;;;;;;9185804;19;20010;-70
2022/07/01 15:04:43;;;;;;;3.42;1.27;;;20.30;94.50;;;;;;9181215;19;20017;-70
2022/07/01 15:07:49;;;;;;;3.88;1.50;;;20.70;94.60;;;;;;9182454;19;20027;-70
2022/07/01 15:11:02;;;;;;;4.30;1.65;;;20.50;93.60;;;;;;9180390;19;20143;-70
2022/07/01 15:14:06;;;;;;;5.55;1.83;;;20.00;93.10;;;;;;9181874;19;20013;-70
2022/07/01 15:17:09;;;;;;;2.38;1.20;;;20.00;93.80;;;;;;9183408;19;20866;-70
2022/07/01 15:20:15;;;;;;;5.13;1.40;;;19.80;94.50;;;;;;9182139;19;20027;-70
2022/07/01 15:23:21;;;;;;;4.38;1.58;;;19.50;94.90;;;;;;9178245;19;20024;-71
2022/07/01 15:26:25;;;;;;;2.90;1.30;;;19.40;95.30;;;;;;9181128;19;20025;-70
2022/07/01 15:29:30;;;;;;;3.67;1.48;;;19.50;95.90;;;;;;9180447;19;20492;-70
2022/07/01 15:32:35;;;;;;;4.82;1.70;;;19.80;95.60;;;;;;9179955;19;20044;-70
2022/07/01 15:35:39;;;;;;;3.92;1.55;;;20.00;95.10;;;;;;9183399;19;20010;-70
2022/07/01 15:38:45;;;;;;;6.03;2.60;;;20.00;95.00;;;;;;9180047;19;20044;-70
2022/07/01 15:41:49;;;;;;;5.63;1.80;;;19.90;95.00;;;;;;9181509;19;20375;-70
2022/07/01 15:44:53;;;;;;;4.82;1.65;;;20.00;95.10;;;;;;9179547;19;20476;-70
2022/07/01 15:48:09;;;;;;;6.07;1.90;;;20.30;95.30;;;;;;9179502;19;20074;-70
2022/07/01 15:51:13;;;;;;;5.28;1.75;;;19.90;94.80;;;;;;9180526;19;20070;-70
2022/07/01 15:54:20;;;;;;;5.88;1.80;;;20.30;95.50;;;;;;9179416;19;20487;-70
2022/07/01 15:57:24;;;;;;;5.53;1.83;;;20.40;95.30;;;;;;9177284;19;20026;-70
2022/07/01 16:00:30;;;;;;;4.40;1.80;;;20.30;95.00;;;;;;9179279;19;20118;-70
2022/07/01 16:03:34;;;;;;;3.67;1.60;;;20.40;94.20;;;;;;9179167;19;20017;-70
2022/07/01 16:06:38;;;;;;;7.70;1.90;;;20.20;94.00;;;;;;9179605;19;20037;-70
2022/07/01 16:09:45;;;;;;;3.97;2.05;;;20.20;94.50;;;;;;9183956;19;20074;-70
2022/07/01 16:12:51;;;;;;;5.15;1.60;;;20.40;93.90;;;;;;9179300;19;20025;-70
2022/07/01 16:15:55;;;;;;;3.65;1.60;;;20.70;92.90;;;;;;9178356;19;20495;-70
2022/07/01 16:18:59;;;;;;;5.93;1.85;;;20.90;92.70;;;;;;9178996;19;20014;-70